sensor_id;sensor_type;location;lat;lon;timestamp;pressure;altitude;pressure_sealevel;temperature;humidity
18900;BME280;9582;52.018;6.306;2023-06-14T00:02:14;101400.16;;;16.36;100.00
18900;BME280;9582;52.018;6.306;2023-06-14T00:04:41;101401.84;;;16.37;100.00
18900;BME280;9582;52.018;6.306;2023-06-14T00:07:08;101404.59;;;16.36;100.00
18900;BME280;9582;52.018;6.306;2023-06-14T00:09:35;101401.84;;;16.37;100.00
18900;BME280;9582;52.018;6.306;2023-06-14T00:12:01;101403.66;;;16.37;100.00
18900;BME280;9582;52.018;6.306;2023-06-14T00:14:29;101399.66;;;16.30;100.00
18900;BME280;9582;52.018;6.306;2023-06-14T00:16:56;101402.41;;;16.28;100.00
18900;BME280;9582;52.018;6.306;2023-06-14T00:19:23;101403.63;;;16.23;100.00
18900;BME280;9582;52.018;6.306;2023-06-14T00:21:50;101401.91;;;16.22;100.00
18900;BME280;9582;52.018;6.306;2023-06-14T00:24:17;101412.75;;;16.17;100.00
18900;BME280;9582;52.018;6.306;2023-06-14T00:26:43;101406.09;;;16.26;100.00
18900;BME280;9582;52.018;6.306;2023-06-14T00:29:10;101412.38;;;16.23;100.00
18900;BME280;9582;52.018;6.306;2023-06-14T00:31:38;101417.00;;;16.20;100.00
18900;BME280;9582;52.018;6.306;2023-06-14T00:34:04;101413.47;;;16.05;100.00
18900;BME280;9582;52.018;6.306;2023-06-14T00:36:32;101422.00;;;15.94;100.00
18900;BME280;9582;52.018;6.306;2023-06-14T00:38:58;101419.78;;;15.87;100.00
18900;BME280;9582;52.018;6.306;2023-06-14T00:41:25;101418.34;;;15.81;100.00
18900;BME280;9582;52.018;6.306;2023-06-14T00:43:52;101421.94;;;15.80;100.00
18900;BME280;9582;52.018;6.306;2023-06-14T00:46:20;101424.13;;;15.72;100.00
18900;BME280;9582;52.018;6.306;2023-06-14T00:48:48;101418.44;;;15.64;100.00
18900;BME280;9582;52.018;6.306;2023-06-14T00:51:15;101432.75;;;15.60;100.00
18900;BME280;9582;52.018;6.306;2023-06-14T00:53:42;101431.31;;;15.54;100.00
18900;BME280;9582;52.018;6.306;2023-06-14T00:56:12;101425.66;;;15.45;100.00
18900;BME280;9582;52.018;6.306;2023-06-14T00:58:41;101425.97;;;15.39;100.00
18900;BME280;9582;52.018;6.306;2023-06-14T01:01:08;101427.44;;;15.29;100.00
18900;BME280;9582;52.018;6.306;2023-06-14T01:03:34;101425.88;;;15.25;100.00
18900;BME280;9582;52.018;6.306;2023-06-14T01:06:12;101426.03;;;15.22;100.00
18900;BME280;9582;52.018;6.306;2023-06-14T01:08:45;101434.28;;;15.16;100.00
18900;BME280;9582;52.018;6.306;2023-06-14T01:11:19;101433.63;;;15.12;100.00
18900;BME280;9582;52.018;6.306;2023-06-14T01:13:49;101435.47;;;15.10;100.00
18900;BME280;9582;52.018;6.306;2023-06-14T01:16:17;101434.78;;;15.07;100.00
18900;BME280;9582;52.018;6.306;2023-06-14T01:18:45;101435.97;;;15.01;100.00
18900;BME280;9582;52.018;6.306;2023-06-14T01:21:24;101434.69;;;14.92;100.00
18900;BME280;9582;52.018;6.306;2023-06-14T01:23:52;101432.66;;;14.97;100.00
18900;BME280;9582;52.018;6.306;2023-06-14T01:26:20;101431.78;;;14.97;100.00
18900;BME280;9582;52.018;6.306;2023-06-14T01:28:47;101430.34;;;14.91;100.00
18900;BME280;9582;52.018;6.306;2023-06-14T01:31:17;101427.00;;;14.88;100.00
18900;BME280;9582;52.018;6.306;2023-06-14T01:33:47;101424.63;;;14.83;100.00
18900;BME280;9582;52.018;6.306;2023-06-14T01:36:16;101426.56;;;14.80;100.00
18900;BME280;9582;52.018;6.306;2023-06-14T01:38:44;101425.78;;;14.78;100.00
18900;BME280;9582;52.018;6.306;2023-06-14T01:41:13;101430.97;;;14.79;100.00
18900;BME280;9582;52.018;6.306;2023-06-14T01:43:41;101427.72;;;14.74;100.00
18900;BME280;9582;52.018;6.306;2023-06-14T01:46:08;101429.75;;;14.69;100.00
18900;BME280;9582;52.018;6.306;2023-06-14T01:48:36;101429.16;;;14.64;100.00
18900;BME280;9582;52.018;6.306;2023-06-14T01:51:03;101440.00;;;14.58;100.00
18900;BME280;9582;52.018;6.306;2023-06-14T01:53:29;101444.50;;;14.56;100.00
18900;BME280;9582;52.018;6.306;2023-06-14T01:55:56;101437.66;;;14.52;100.00
18900;BME280;9582;52.018;6.306;2023-06-14T01:58:24;101443.31;;;14.62;100.00
18900;BME280;9582;52.018;6.306;2023-06-14T02:00:51;101433.72;;;14.61;100.00
18900;BME280;9582;52.018;6.306;2023-06-14T02:03:20;101440.06;;;14.57;100.00
18900;BME280;9582;52.018;6.306;2023-06-14T02:05:47;101438.53;;;14.53;100.00
18900;BME280;9582;52.018;6.306;2023-06-14T02:08:13;101436.25;;;14.45;100.00
18900;BME280;9582;52.018;6.306;2023-06-14T02:10:40;101438.06;;;14.44;100.00
18900;BME280;9582;52.018;6.306;2023-06-14T02:13:06;101436.44;;;14.42;100.00
18900;BME280;9582;52.018;6.306;2023-06-14T02:15:34;101434.75;;;14.41;100.00
18900;BME280;9582;52.018;6.306;2023-06-14T02:18:01;101432.97;;;14.41;100.00
18900;BME280;9582;52.018;6.306;2023-06-14T02:20:28;101435.44;;;14.44;100.00
18900;BME280;9582;52.018;6.306;2023-06-14T02:22:56;101426.91;;;14.39;100.00
18900;BME280;9582;52.018;6.306;2023-06-14T02:25:23;101430.53;;;14.37;100.00
18900;BME280;9582;52.018;6.306;2023-06-14T02:27:50;101434.28;;;14.33;100.00
18900;BME280;9582;52.018;6.306;2023-06-14T02:30:16;101431.75;;;14.30;100.00
18900;BME280;9582;52.018;6.306;2023-06-14T02:32:44;101435.31;;;14.29;100.00
18900;BME280;9582;52.018;6.306;2023-06-14T02:35:11;101440.72;;;14.26;100.00
18900;BME280;9582;52.018;6.306;2023-06-14T02:37:38;101436.31;;;14.26;100.00
18900;BME280;9582;52.018;6.306;2023-06-14T02:40:06;101447.56;;;14.30;100.00
18900;BME280;9582;52.018;6.306;2023-06-14T02:42:34;101451.53;;;14.20;100.00
18900;BME280;9582;52.018;6.306;2023-06-14T02:45:03;101451.34;;;14.24;100.00
18900;BME280;9582;52.018;6.306;2023-06-14T02:47:30;101447.84;;;14.24;100.00
18900;BME280;9582;52.018;6.306;2023-06-14T02:49:58;101448.78;;;14.23;100.00
18900;BME280;9582;52.018;6.306;2023-06-14T02:52:25;101452.34;;;14.22;100.00
18900;BME280;9582;52.018;6.306;2023-06-14T02:54:52;101449.00;;;14.18;100.00
18900;BME280;9582;52.018;6.306;2023-06-14T02:57:19;101450.63;;;14.21;100.00
18900;BME280;9582;52.018;6.306;2023-06-14T02:59:46;101453.50;;;14.16;100.00
18900;BME280;9582;52.018;6.306;2023-06-14T03:02:12;101458.81;;;14.15;100.00
18900;BME280;9582;52.018;6.306;2023-06-14T03:04:39;101454.50;;;14.14;100.00
18900;BME280;9582;52.018;6.306;2023-06-14T03:07:13;101466.88;;;14.12;100.00
18900;BME280;9582;52.018;6.306;2023-06-14T03:09:45;101468.88;;;14.07;100.00
18900;BME280;9582;52.018;6.306;2023-06-14T03:12:12;101473.22;;;14.08;100.00
18900;BME280;9582;52.018;6.306;2023-06-14T03:14:40;101474.91;;;14.09;100.00
18900;BME280;9582;52.018;6.306;2023-06-14T03:17:08;101483.78;;;14.06;100.00
18900;BME280;9582;52.018;6.306;2023-06-14T03:19:38;101473.06;;;14.11;100.00
18900;BME280;9582;52.018;6.306;2023-06-14T03:22:06;101488.19;;;14.06;100.00
18900;BME280;9582;52.018;6.306;2023-06-14T03:24:35;101489.06;;;14.06;100.00
18900;BME280;9582;52.018;6.306;2023-06-14T03:27:07;101485.41;;;14.09;100.00
18900;BME280;9582;52.018;6.306;2023-06-14T03:29:36;101492.41;;;14.10;100.00
18900;BME280;9582;52.018;6.306;2023-06-14T03:32:03;101489.53;;;14.14;100.00
18900;BME280;9582;52.018;6.306;2023-06-14T03:34:36;101492.00;;;14.17;100.00
18900;BME280;9582;52.018;6.306;2023-06-14T03:37:04;101496.50;;;14.15;100.00
18900;BME280;9582;52.018;6.306;2023-06-14T03:39:31;101496.25;;;14.20;100.00
18900;BME280;9582;52.018;6.306;2023-06-14T03:41:59;101500.47;;;14.24;100.00
18900;BME280;9582;52.018;6.306;2023-06-14T03:44:26;101500.56;;;14.22;100.00
18900;BME280;9582;52.018;6.306;2023-06-14T03:46:52;101508.06;;;14.30;100.00
18900;BME280;9582;52.018;6.306;2023-06-14T03:49:19;101505.09;;;14.55;100.00
18900;BME280;9582;52.018;6.306;2023-06-14T03:51:46;101502.84;;;14.81;100.00
18900;BME280;9582;52.018;6.306;2023-06-14T03:54:17;101505.09;;;15.22;100.00
18900;BME280;9582;52.018;6.306;2023-06-14T03:56:44;101492.66;;;15.41;100.00
18900;BME280;9582;52.018;6.306;2023-06-14T03:59:12;101490.91;;;15.57;100.00
18900;BME280;9582;52.018;6.306;2023-06-14T04:01:39;101487.31;;;15.58;100.00
18900;BME280;9582;52.018;6.306;2023-06-14T04:04:13;101489.63;;;15.64;100.00
18900;BME280;9582;52.018;6.306;2023-06-14T04:06:41;101487.69;;;15.52;100.00
18900;BME280;9582;52.018;6.306;2023-06-14T04:09:09;101495.50;;;15.36;100.00
18900;BME280;9582;52.018;6.306;2023-06-14T04:11:36;101500.47;;;15.42;100.00
18900;BME280;9582;52.018;6.306;2023-06-14T04:14:02;101502.47;;;15.70;100.00
18900;BME280;9582;52.018;6.306;2023-06-14T04:16:30;101506.22;;;15.82;100.00
18900;BME280;9582;52.018;6.306;2023-06-14T04:18:58;101515.50;;;15.73;100.00
18900;BME280;9582;52.018;6.306;2023-06-14T04:21:25;101518.34;;;15.53;100.00
18900;BME280;9582;52.018;6.306;2023-06-14T04:23:55;101519.66;;;15.44;100.00
18900;BME280;9582;52.018;6.306;2023-06-14T04:26:25;101521.63;;;15.41;100.00
18900;BME280;9582;52.018;6.306;2023-06-14T04:28:55;101522.56;;;15.40;100.00
18900;BME280;9582;52.018;6.306;2023-06-14T04:31:29;101525.03;;;15.43;100.00
18900;BME280;9582;52.018;6.306;2023-06-14T04:34:00;101524.81;;;15.47;100.00
18900;BME280;9582;52.018;6.306;2023-06-14T04:36:26;101527.88;;;15.55;100.00
18900;BME280;9582;52.018;6.306;2023-06-14T04:38:53;101534.69;;;15.59;100.00
18900;BME280;9582;52.018;6.306;2023-06-14T04:41:22;101537.06;;;15.64;100.00
18900;BME280;9582;52.018;6.306;2023-06-14T04:43:56;101526.88;;;15.74;100.00
18900;BME280;9582;52.018;6.306;2023-06-14T04:46:24;101534.38;;;15.81;100.00
18900;BME280;9582;52.018;6.306;2023-06-14T04:48:56;101528.69;;;15.89;100.00
18900;BME280;9582;52.018;6.306;2023-06-14T04:51:23;101541.50;;;15.95;100.00
18900;BME280;9582;52.018;6.306;2023-06-14T04:53:55;101539.50;;;16.00;100.00
18900;BME280;9582;52.018;6.306;2023-06-14T04:56:24;101545.25;;;16.06;100.00
18900;BME280;9582;52.018;6.306;2023-06-14T04:58:51;101542.38;;;16.11;100.00
18900;BME280;9582;52.018;6.306;2023-06-14T05:01:18;101549.97;;;16.17;100.00
18900;BME280;9582;52.018;6.306;2023-06-14T05:03:45;101544.31;;;16.23;100.00
18900;BME280;9582;52.018;6.306;2023-06-14T05:06:15;101546.59;;;16.29;100.00
18900;BME280;9582;52.018;6.306;2023-06-14T05:08:42;101555.03;;;16.36;100.00
18900;BME280;9582;52.018;6.306;2023-06-14T05:11:09;101551.19;;;16.41;100.00
18900;BME280;9582;52.018;6.306;2023-06-14T05:13:36;101549.13;;;16.46;100.00
18900;BME280;9582;52.018;6.306;2023-06-14T05:16:02;101555.00;;;16.51;100.00
18900;BME280;9582;52.018;6.306;2023-06-14T05:18:29;101554.78;;;16.56;100.00
18900;BME280;9582;52.018;6.306;2023-06-14T05:20:55;101561.38;;;16.63;100.00
18900;BME280;9582;52.018;6.306;2023-06-14T05:23:23;101561.78;;;16.71;100.00
18900;BME280;9582;52.018;6.306;2023-06-14T05:25:50;101558.44;;;16.83;100.00
18900;BME280;9582;52.018;6.306;2023-06-14T05:28:16;101554.16;;;17.10;100.00
18900;BME280;9582;52.018;6.306;2023-06-14T05:30:43;101554.78;;;17.72;100.00
18900;BME280;9582;52.018;6.306;2023-06-14T05:33:09;101554.78;;;18.13;100.00
18900;BME280;9582;52.018;6.306;2023-06-14T05:35:36;101557.13;;;18.44;100.00
18900;BME280;9582;52.018;6.306;2023-06-14T05:38:03;101552.59;;;18.73;100.00
18900;BME280;9582;52.018;6.306;2023-06-14T05:40:31;101559.41;;;18.89;100.00
18900;BME280;9582;52.018;6.306;2023-06-14T05:42:58;101556.56;;;19.05;100.00
18900;BME280;9582;52.018;6.306;2023-06-14T05:45:24;101558.16;;;19.20;100.00
18900;BME280;9582;52.018;6.306;2023-06-14T05:47:51;101566.56;;;19.52;100.00
18900;BME280;9582;52.018;6.306;2023-06-14T05:50:19;101561.78;;;19.70;100.00
18900;BME280;9582;52.018;6.306;2023-06-14T05:52:46;101561.88;;;19.68;100.00
18900;BME280;9582;52.018;6.306;2023-06-14T05:55:12;101568.75;;;19.71;100.00
18900;BME280;9582;52.018;6.306;2023-06-14T05:57:40;101566.94;;;19.84;100.00
18900;BME280;9582;52.018;6.306;2023-06-14T06:00:08;101565.09;;;19.97;100.00
18900;BME280;9582;52.018;6.306;2023-06-14T06:02:39;101567.03;;;20.18;100.00
18900;BME280;9582;52.018;6.306;2023-06-14T06:05:06;101565.06;;;20.09;100.00
18900;BME280;9582;52.018;6.306;2023-06-14T06:07:33;101568.38;;;20.37;100.00
18900;BME280;9582;52.018;6.306;2023-06-14T06:10:00;101570.63;;;20.30;100.00
18900;BME280;9582;52.018;6.306;2023-06-14T06:12:26;101585.38;;;20.58;100.00
18900;BME280;9582;52.018;6.306;2023-06-14T06:14:54;101585.31;;;20.70;100.00
18900;BME280;9582;52.018;6.306;2023-06-14T06:17:21;101587.94;;;20.59;100.00
18900;BME280;9582;52.018;6.306;2023-06-14T06:19:48;101581.91;;;20.57;100.00
18900;BME280;9582;52.018;6.306;2023-06-14T06:22:14;101590.69;;;20.58;100.00
18900;BME280;9582;52.018;6.306;2023-06-14T06:24:41;101585.56;;;20.67;100.00
18900;BME280;9582;52.018;6.306;2023-06-14T06:27:07;101600.81;;;20.77;100.00
18900;BME280;9582;52.018;6.306;2023-06-14T06:29:34;101591.28;;;20.74;100.00
18900;BME280;9582;52.018;6.306;2023-06-14T06:32:02;101593.19;;;21.07;100.00
18900;BME280;9582;52.018;6.306;2023-06-14T06:34:29;101601.94;;;21.20;100.00
18900;BME280;9582;52.018;6.306;2023-06-14T06:36:55;101595.31;;;21.37;100.00
18900;BME280;9582;52.018;6.306;2023-06-14T06:39:22;101605.13;;;21.47;100.00
18900;BME280;9582;52.018;6.306;2023-06-14T06:41:48;101607.34;;;21.75;100.00
18900;BME280;9582;52.018;6.306;2023-06-14T06:44:25;101603.94;;;21.84;100.00
18900;BME280;9582;52.018;6.306;2023-06-14T06:46:51;101605.75;;;21.84;100.00
18900;BME280;9582;52.018;6.306;2023-06-14T06:49:19;101604.47;;;21.90;100.00
18900;BME280;9582;52.018;6.306;2023-06-14T06:51:59;101597.88;;;22.05;100.00
18900;BME280;9582;52.018;6.306;2023-06-14T06:54:26;101608.78;;;22.02;100.00
18900;BME280;9582;52.018;6.306;2023-06-14T06:56:53;101607.72;;;22.04;100.00
18900;BME280;9582;52.018;6.306;2023-06-14T06:59:20;101602.38;;;22.15;100.00
18900;BME280;9582;52.018;6.306;2023-06-14T07:01:46;101619.19;;;22.05;100.00
18900;BME280;9582;52.018;6.306;2023-06-14T07:04:13;101614.44;;;22.30;100.00
18900;BME280;9582;52.018;6.306;2023-06-14T07:06:43;101612.59;;;22.42;100.00
18900;BME280;9582;52.018;6.306;2023-06-14T07:09:09;101618.03;;;22.52;100.00
18900;BME280;9582;52.018;6.306;2023-06-14T07:11:38;101624.28;;;22.62;100.00
18900;BME280;9582;52.018;6.306;2023-06-14T07:14:04;101621.00;;;22.80;100.00
18900;BME280;9582;52.018;6.306;2023-06-14T07:16:31;101616.50;;;23.02;100.00
18900;BME280;9582;52.018;6.306;2023-06-14T07:18:57;101621.25;;;23.19;100.00
18900;BME280;9582;52.018;6.306;2023-06-14T07:21:24;101627.97;;;23.34;100.00
18900;BME280;9582;52.018;6.306;2023-06-14T07:23:53;101630.06;;;23.51;100.00
18900;BME280;9582;52.018;6.306;2023-06-14T07:26:20;101622.81;;;23.63;100.00
18900;BME280;9582;52.018;6.306;2023-06-14T07:28:48;101629.59;;;23.46;100.00
18900;BME280;9582;52.018;6.306;2023-06-14T07:31:15;101626.50;;;23.41;100.00
18900;BME280;9582;52.018;6.306;2023-06-14T07:33:42;101630.13;;;23.19;100.00
18900;BME280;9582;52.018;6.306;2023-06-14T07:36:09;101634.53;;;23.09;100.00
18900;BME280;9582;52.018;6.306;2023-06-14T07:38:35;101631.03;;;23.09;100.00
18900;BME280;9582;52.018;6.306;2023-06-14T07:41:03;101631.53;;;23.03;100.00
18900;BME280;9582;52.018;6.306;2023-06-14T07:43:30;101630.75;;;23.32;100.00
18900;BME280;9582;52.018;6.306;2023-06-14T07:45:56;101636.13;;;23.00;100.00
18900;BME280;9582;52.018;6.306;2023-06-14T07:48:23;101632.00;;;23.08;100.00
18900;BME280;9582;52.018;6.306;2023-06-14T07:50:49;101637.59;;;23.05;100.00
18900;BME280;9582;52.018;6.306;2023-06-14T07:53:16;101637.00;;;23.22;100.00
18900;BME280;9582;52.018;6.306;2023-06-14T07:55:42;101640.28;;;23.25;100.00
18900;BME280;9582;52.018;6.306;2023-06-14T07:58:11;101643.72;;;23.37;100.00
18900;BME280;9582;52.018;6.306;2023-06-14T08:00:38;101646.13;;;23.19;100.00
18900;BME280;9582;52.018;6.306;2023-06-14T08:03:04;101641.88;;;23.37;100.00
18900;BME280;9582;52.018;6.306;2023-06-14T08:05:31;101643.00;;;23.35;100.00
18900;BME280;9582;52.018;6.306;2023-06-14T08:07:58;101647.84;;;23.41;100.00
18900;BME280;9582;52.018;6.306;2023-06-14T08:10:24;101647.88;;;23.30;100.00
18900;BME280;9582;52.018;6.306;2023-06-14T08:12:51;101648.56;;;23.43;100.00
18900;BME280;9582;52.018;6.306;2023-06-14T08:15:19;101651.25;;;23.32;100.00
18900;BME280;9582;52.018;6.306;2023-06-14T08:17:45;101636.38;;;23.80;100.00
18900;BME280;9582;52.018;6.306;2023-06-14T08:20:12;101641.19;;;23.86;100.00
18900;BME280;9582;52.018;6.306;2023-06-14T08:22:42;101639.97;;;23.90;100.00
18900;BME280;9582;52.018;6.306;2023-06-14T08:25:09;101636.78;;;24.06;100.00
18900;BME280;9582;52.018;6.306;2023-06-14T08:27:36;101641.63;;;24.12;100.00
18900;BME280;9582;52.018;6.306;2023-06-14T08:30:03;101634.22;;;23.95;100.00
18900;BME280;9582;52.018;6.306;2023-06-14T08:32:31;101640.41;;;23.95;100.00
18900;BME280;9582;52.018;6.306;2023-06-14T08:34:57;101631.75;;;23.82;100.00
18900;BME280;9582;52.018;6.306;2023-06-14T08:37:24;101632.06;;;24.19;100.00
18900;BME280;9582;52.018;6.306;2023-06-14T08:39:52;101630.47;;;24.07;100.00
18900;BME280;9582;52.018;6.306;2023-06-14T08:42:21;101638.75;;;24.04;100.00
18900;BME280;9582;52.018;6.306;2023-06-14T08:44:50;101630.06;;;24.11;100.00
18900;BME280;9582;52.018;6.306;2023-06-14T08:47:17;101622.38;;;24.28;100.00
18900;BME280;9582;52.018;6.306;2023-06-14T08:49:46;101625.56;;;24.12;100.00
18900;BME280;9582;52.018;6.306;2023-06-14T08:52:15;101626.44;;;24.22;100.00
18900;BME280;9582;52.018;6.306;2023-06-14T08:54:46;101629.72;;;24.35;100.00
18900;BME280;9582;52.018;6.306;2023-06-14T08:57:14;101629.25;;;24.21;100.00
18900;BME280;9582;52.018;6.306;2023-06-14T08:59:46;101634.88;;;24.18;100.00
18900;BME280;9582;52.018;6.306;2023-06-14T09:02:14;101625.63;;;24.31;100.00
18900;BME280;9582;52.018;6.306;2023-06-14T09:04:46;101626.78;;;24.38;100.00
18900;BME280;9582;52.018;6.306;2023-06-14T09:07:14;101631.78;;;24.22;100.00
18900;BME280;9582;52.018;6.306;2023-06-14T09:09:41;101623.25;;;24.47;100.00
18900;BME280;9582;52.018;6.306;2023-06-14T09:12:08;101625.03;;;24.28;100.00
18900;BME280;9582;52.018;6.306;2023-06-14T09:14:37;101623.53;;;24.44;100.00
18900;BME280;9582;52.018;6.306;2023-06-14T09:17:06;101619.88;;;24.45;100.00
18900;BME280;9582;52.018;6.306;2023-06-14T09:19:33;101620.59;;;24.57;100.00
18900;BME280;9582;52.018;6.306;2023-06-14T09:22:03;101632.41;;;24.64;100.00
18900;BME280;9582;52.018;6.306;2023-06-14T09:24:29;101629.44;;;24.38;100.00
18900;BME280;9582;52.018;6.306;2023-06-14T09:26:56;101628.25;;;24.12;100.00
18900;BME280;9582;52.018;6.306;2023-06-14T09:29:23;101631.69;;;24.03;100.00
18900;BME280;9582;52.018;6.306;2023-06-14T09:31:50;101630.94;;;24.12;100.00
18900;BME280;9582;52.018;6.306;2023-06-14T09:34:17;101628.69;;;24.17;100.00
18900;BME280;9582;52.018;6.306;2023-06-14T09:36:44;101626.50;;;24.41;100.00
18900;BME280;9582;52.018;6.306;2023-06-14T09:39:16;101628.31;;;24.50;100.00
18900;BME280;9582;52.018;6.306;2023-06-14T09:41:44;101646.31;;;24.39;100.00
18900;BME280;9582;52.018;6.306;2023-06-14T09:44:10;101642.81;;;24.38;100.00
18900;BME280;9582;52.018;6.306;2023-06-14T09:46:37;101641.34;;;24.25;100.00
18900;BME280;9582;52.018;6.306;2023-06-14T09:49:05;101648.44;;;24.35;100.00
18900;BME280;9582;52.018;6.306;2023-06-14T09:51:31;101639.56;;;24.35;100.00
18900;BME280;9582;52.018;6.306;2023-06-14T09:53:59;101643.50;;;24.40;100.00
18900;BME280;9582;52.018;6.306;2023-06-14T09:56:28;101649.16;;;24.47;100.00
18900;BME280;9582;52.018;6.306;2023-06-14T09:58:57;101638.28;;;24.39;100.00
18900;BME280;9582;52.018;6.306;2023-06-14T10:01:25;101647.59;;;24.35;100.00
18900;BME280;9582;52.018;6.306;2023-06-14T10:03:55;101641.00;;;24.08;100.00
18900;BME280;9582;52.018;6.306;2023-06-14T10:06:23;101635.91;;;24.45;100.00
18900;BME280;9582;52.018;6.306;2023-06-14T10:08:51;101632.16;;;24.57;100.00
18900;BME280;9582;52.018;6.306;2023-06-14T10:11:18;101633.28;;;24.55;100.00
18900;BME280;9582;52.018;6.306;2023-06-14T10:13:46;101629.59;;;24.56;100.00
18900;BME280;9582;52.018;6.306;2023-06-14T10:16:18;101632.72;;;24.61;100.00
18900;BME280;9582;52.018;6.306;2023-06-14T10:18:49;101635.66;;;24.58;100.00
18900;BME280;9582;52.018;6.306;2023-06-14T10:21:22;101639.91;;;24.60;100.00
18900;BME280;9582;52.018;6.306;2023-06-14T10:23:56;101648.16;;;24.38;99.66
18900;BME280;9582;52.018;6.306;2023-06-14T10:26:25;101646.03;;;24.42;100.00
18900;BME280;9582;52.018;6.306;2023-06-14T10:28:58;101639.28;;;24.38;100.00
18900;BME280;9582;52.018;6.306;2023-06-14T10:31:43;101648.13;;;24.29;100.00
18900;BME280;9582;52.018;6.306;2023-06-14T10:34:10;101637.34;;;24.59;100.00
18900;BME280;9582;52.018;6.306;2023-06-14T10:36:38;101649.75;;;24.60;100.00
18900;BME280;9582;52.018;6.306;2023-06-14T10:39:08;101643.97;;;24.64;100.00
18900;BME280;9582;52.018;6.306;2023-06-14T10:41:36;101636.38;;;24.60;100.00
18900;BME280;9582;52.018;6.306;2023-06-14T10:44:39;101633.81;;;24.49;100.00
18900;BME280;9582;52.018;6.306;2023-06-14T10:47:07;101639.22;;;24.87;100.00
18900;BME280;9582;52.018;6.306;2023-06-14T10:49:39;101642.00;;;24.76;100.00
18900;BME280;9582;52.018;6.306;2023-06-14T10:52:08;101637.19;;;24.51;100.00
18900;BME280;9582;52.018;6.306;2023-06-14T10:54:55;101644.22;;;24.33;100.00
18900;BME280;9582;52.018;6.306;2023-06-14T10:57:22;101645.63;;;24.37;100.00
18900;BME280;9582;52.018;6.306;2023-06-14T10:59:50;101637.19;;;24.41;100.00
18900;BME280;9582;52.018;6.306;2023-06-14T11:02:37;101647.16;;;23.99;100.00
18900;BME280;9582;52.018;6.306;2023-06-14T11:05:14;101639.59;;;24.04;100.00
18900;BME280;9582;52.018;6.306;2023-06-14T11:07:48;101630.66;;;24.25;100.00
18900;BME280;9582;52.018;6.306;2023-06-14T11:10:26;101630.28;;;24.39;99.81
18900;BME280;9582;52.018;6.306;2023-06-14T11:12:59;101631.78;;;24.22;100.00
18900;BME280;9582;52.018;6.306;2023-06-14T11:15:29;101647.38;;;24.17;100.00
18900;BME280;9582;52.018;6.306;2023-06-14T11:17:56;101632.97;;;24.48;100.00
18900;BME280;9582;52.018;6.306;2023-06-14T11:20:25;101629.75;;;24.64;100.00
18900;BME280;9582;52.018;6.306;2023-06-14T11:22:52;101636.34;;;24.50;100.00
18900;BME280;9582;52.018;6.306;2023-06-14T11:25:18;101631.81;;;24.32;100.00
18900;BME280;9582;52.018;6.306;2023-06-14T11:27:45;101632.97;;;24.08;100.00
18900;BME280;9582;52.018;6.306;2023-06-14T11:30:13;101638.16;;;24.00;100.00
18900;BME280;9582;52.018;6.306;2023-06-14T11:32:41;101636.00;;;24.15;100.00
18900;BME280;9582;52.018;6.306;2023-06-14T11:35:08;101630.31;;;24.77;100.00
18900;BME280;9582;52.018;6.306;2023-06-14T11:37:36;101621.75;;;25.12;100.00
18900;BME280;9582;52.018;6.306;2023-06-14T11:40:04;101633.03;;;24.96;100.00
18900;BME280;9582;52.018;6.306;2023-06-14T11:42:35;101623.59;;;24.92;100.00
18900;BME280;9582;52.018;6.306;2023-06-14T11:45:01;101621.19;;;25.08;100.00
18900;BME280;9582;52.018;6.306;2023-06-14T11:47:31;101617.50;;;25.09;100.00
18900;BME280;9582;52.018;6.306;2023-06-14T11:49:59;101625.25;;;25.12;100.00
18900;BME280;9582;52.018;6.306;2023-06-14T11:52:26;101628.25;;;24.81;100.00
18900;BME280;9582;52.018;6.306;2023-06-14T11:54:53;101614.25;;;24.67;100.00
18900;BME280;9582;52.018;6.306;2023-06-14T11:57:20;101617.56;;;24.81;100.00
18900;BME280;9582;52.018;6.306;2023-06-14T11:59:47;101624.53;;;24.43;100.00
18900;BME280;9582;52.018;6.306;2023-06-14T12:02:15;101620.03;;;24.44;100.00
18900;BME280;9582;52.018;6.306;2023-06-14T12:04:42;101623.97;;;24.78;100.00
18900;BME280;9582;52.018;6.306;2023-06-14T12:07:10;101641.72;;;24.79;100.00
18900;BME280;9582;52.018;6.306;2023-06-14T12:09:40;101626.50;;;24.51;100.00
18900;BME280;9582;52.018;6.306;2023-06-14T12:12:09;101623.59;;;24.83;100.00
18900;BME280;9582;52.018;6.306;2023-06-14T12:14:36;101623.16;;;25.06;100.00
18900;BME280;9582;52.018;6.306;2023-06-14T12:17:06;101630.06;;;24.90;100.00
18900;BME280;9582;52.018;6.306;2023-06-14T12:19:33;101633.44;;;24.82;100.00
18900;BME280;9582;52.018;6.306;2023-06-14T12:22:11;101638.94;;;25.09;100.00
18900;BME280;9582;52.018;6.306;2023-06-14T12:24:37;101634.53;;;25.37;100.00
18900;BME280;9582;52.018;6.306;2023-06-14T12:27:05;101636.78;;;25.42;99.14
18900;BME280;9582;52.018;6.306;2023-06-14T12:29:32;101627.91;;;25.51;99.52
18900;BME280;9582;52.018;6.306;2023-06-14T12:31:59;101621.09;;;25.47;99.56
18900;BME280;9582;52.018;6.306;2023-06-14T12:34:25;101627.16;;;25.68;100.00
18900;BME280;9582;52.018;6.306;2023-06-14T12:36:52;101617.50;;;25.19;100.00
18900;BME280;9582;52.018;6.306;2023-06-14T12:39:20;101616.78;;;25.36;100.00
18900;BME280;9582;52.018;6.306;2023-06-14T12:41:47;101621.44;;;25.15;100.00
18900;BME280;9582;52.018;6.306;2023-06-14T12:44:14;101622.31;;;24.77;100.00
18900;BME280;9582;52.018;6.306;2023-06-14T12:46:42;101622.16;;;24.79;100.00
18900;BME280;9582;52.018;6.306;2023-06-14T12:49:09;101619.91;;;25.12;100.00
18900;BME280;9582;52.018;6.306;2023-06-14T12:51:37;101617.31;;;25.49;100.00
18900;BME280;9582;52.018;6.306;2023-06-14T12:54:04;101627.50;;;25.26;97.32
18900;BME280;9582;52.018;6.306;2023-06-14T12:56:31;101620.50;;;24.97;97.56